createdAt,value
2023-06-06T00:00:47.034Z,16.20
2023-06-06T00:03:14.087Z,16.20
2023-06-06T00:05:41.218Z,16.10
2023-06-06T00:08:09.219Z,16.20
2023-06-06T00:10:36.944Z,16.20
2023-06-06T00:13:03.957Z,16.10
2023-06-06T00:15:32.066Z,16.00
2023-06-06T00:18:00.946Z,16.00
2023-06-06T00:20:33.699Z,16.00
2023-06-06T00:23:00.855Z,15.90
2023-06-06T00:25:27.772Z,15.80
2023-06-06T00:27:54.687Z,15.80
2023-06-06T00:30:21.606Z,15.70
2023-06-06T00:32:48.529Z,15.80
2023-06-06T00:35:15.665Z,15.70
2023-06-06T00:37:42.718Z,15.70
2023-06-06T00:40:10.836Z,15.60
2023-06-06T00:42:37.696Z,15.60
2023-06-06T00:45:05.196Z,15.50
2023-06-06T00:47:32.159Z,15.50
2023-06-06T00:49:59.427Z,15.50
2023-06-06T00:52:26.645Z,15.50
2023-06-06T00:54:54.323Z,15.40
2023-06-06T00:57:21.887Z,15.50
2023-06-06T00:59:49.054Z,15.50
2023-06-06T01:02:19.088Z,15.50
2023-06-06T01:04:47.943Z,15.40
2023-06-06T01:07:18.555Z,15.30
2023-06-06T01:09:46.972Z,15.20
2023-06-06T01:12:38.830Z,15.10
2023-06-06T01:15:14.735Z,15.00
2023-06-06T01:17:47.342Z,15.00
2023-06-06T01:20:16.048Z,15.00
2023-06-06T01:22:47.249Z,15.00
2023-06-06T01:25:20.317Z,15.00
2023-06-06T01:27:48.294Z,15.00
2023-06-06T01:30:20.921Z,14.90
2023-06-06T01:33:05.269Z,14.80
2023-06-06T01:36:09.304Z,14.70
2023-06-06T01:38:48.506Z,14.60
2023-06-06T01:41:20.470Z,14.50
2023-06-06T01:43:52.011Z,14.40
2023-06-06T01:46:21.385Z,14.30
2023-06-06T01:48:49.412Z,14.20
2023-06-06T01:51:16.428Z,14.10
2023-06-06T01:53:43.273Z,14.00
2023-06-06T01:56:14.994Z,14.00
2023-06-06T01:58:42.628Z,14.00
2023-06-06T02:01:10.243Z,14.00
2023-06-06T02:03:38.125Z,14.00
2023-06-06T02:06:06.545Z,14.10
2023-06-06T02:08:33.573Z,14.10
2023-06-06T02:11:00.655Z,14.10
2023-06-06T02:13:27.692Z,14.00
2023-06-06T02:15:54.879Z,13.90
2023-06-06T02:18:21.908Z,13.80
2023-06-06T02:20:48.815Z,13.70
2023-06-06T02:23:18.554Z,13.60
2023-06-06T02:25:45.490Z,13.70
2023-06-06T02:28:12.431Z,13.70
2023-06-06T02:30:39.389Z,13.80
2023-06-06T02:33:07.478Z,13.80
2023-06-06T02:35:35.850Z,13.90
2023-06-06T02:38:02.717Z,13.80
2023-06-06T02:40:29.745Z,13.80
2023-06-06T02:42:56.596Z,13.70
2023-06-06T02:45:24.091Z,13.60
2023-06-06T02:47:51.017Z,13.50
2023-06-06T02:50:17.991Z,13.40
2023-06-06T02:52:44.858Z,13.30
2023-06-06T02:55:11.735Z,13.10
2023-06-06T02:57:38.608Z,13.10
2023-06-06T03:00:09.224Z,13.00
2023-06-06T03:02:36.607Z,13.20
2023-06-06T03:05:05.651Z,13.20
2023-06-06T03:07:33.501Z,13.20
2023-06-06T03:10:00.428Z,13.20
2023-06-06T03:12:27.338Z,13.20
2023-06-06T03:14:58.081Z,13.20
2023-06-06T03:17:25.455Z,13.20
2023-06-06T03:19:52.486Z,13.20
2023-06-06T03:22:19.756Z,13.20
2023-06-06T03:24:47.867Z,13.20
2023-06-06T03:27:15.195Z,13.30
2023-06-06T03:29:42.207Z,13.20
2023-06-06T03:32:10.061Z,13.20
2023-06-06T03:34:37.063Z,13.20
2023-06-06T03:37:04.210Z,13.30
2023-06-06T03:39:31.382Z,13.30
2023-06-06T03:41:58.396Z,13.40
2023-06-06T03:44:25.398Z,13.40
2023-06-06T03:46:52.270Z,13.40
2023-06-06T03:49:19.173Z,13.40
2023-06-06T03:51:46.270Z,13.50
2023-06-06T03:54:13.383Z,13.60
2023-06-06T03:56:43.542Z,13.70
2023-06-06T03:59:14.510Z,13.80
2023-06-06T04:01:42.510Z,13.90
2023-06-06T04:04:09.964Z,14.10
2023-06-06T04:06:38.606Z,14.20
2023-06-06T04:09:09.190Z,14.20
2023-06-06T04:11:37.080Z,14.30
2023-06-06T04:14:04.351Z,14.50
2023-06-06T04:16:31.380Z,14.60
2023-06-06T04:18:58.717Z,14.70
2023-06-06T04:21:25.747Z,14.80
2023-06-06T04:23:55.135Z,15.00
2023-06-06T04:26:28.580Z,15.20
2023-06-06T04:29:00.097Z,15.30
2023-06-06T04:31:30.534Z,15.40
2023-06-06T04:33:58.739Z,15.60
2023-06-06T04:36:25.897Z,15.80
2023-06-06T04:39:01.493Z,15.90
2023-06-06T04:44:03.439Z,16.20
2023-06-06T04:46:30.962Z,16.30
2023-06-06T04:49:02.699Z,16.40
2023-06-06T04:51:31.309Z,16.60
2023-06-06T04:54:01.526Z,16.70
2023-06-06T04:56:32.283Z,16.90
2023-06-06T04:59:07.110Z,17.00
2023-06-06T05:01:39.093Z,17.10
2023-06-06T05:04:08.239Z,17.30
2023-06-06T05:06:35.878Z,17.40
2023-06-06T05:09:06.480Z,17.50
2023-06-06T05:11:33.645Z,17.60
2023-06-06T05:14:01.013Z,17.80
2023-06-06T05:16:28.344Z,18.00
2023-06-06T05:18:55.542Z,18.20
2023-06-06T05:21:22.840Z,18.30
2023-06-06T05:23:49.795Z,18.50
2023-06-06T05:26:16.992Z,18.70
2023-06-06T05:28:43.873Z,18.90
2023-06-06T05:31:11.147Z,19.20
2023-06-06T05:33:43.010Z,19.40
2023-06-06T05:36:11.246Z,19.60
2023-06-06T05:38:38.206Z,19.80
2023-06-06T05:41:05.492Z,20.00
2023-06-06T05:43:34.302Z,20.20
2023-06-06T05:46:03.551Z,20.40
2023-06-06T05:48:31.048Z,20.60
2023-06-06T05:50:58.686Z,20.80
2023-06-06T05:53:26.087Z,21.00
2023-06-06T05:55:53.079Z,21.20
2023-06-06T05:58:20.027Z,21.40
2023-06-06T06:00:47.129Z,21.60
2023-06-06T06:03:15.473Z,21.80
2023-06-06T06:05:43.518Z,21.90
2023-06-06T06:08:10.540Z,22.20
2023-06-06T06:10:39.130Z,22.40
2023-06-06T06:13:07.238Z,22.60
2023-06-06T06:15:36.707Z,22.80
2023-06-06T06:18:05.098Z,22.90
2023-06-06T06:20:32.303Z,23.10
2023-06-06T06:22:59.204Z,23.30
2023-06-06T06:25:26.259Z,23.50
2023-06-06T06:27:53.171Z,23.70
2023-06-06T06:30:20.196Z,23.90
2023-06-06T06:32:47.239Z,24.10
2023-06-06T06:35:14.552Z,24.30
2023-06-06T06:37:42.266Z,24.50
2023-06-06T06:40:13.491Z,24.40
2023-06-06T06:42:45.207Z,24.40
2023-06-06T06:45:14.749Z,24.40
2023-06-06T06:47:43.113Z,24.70
2023-06-06T06:50:11.965Z,24.90
2023-06-06T06:52:39.231Z,25.20
2023-06-06T06:55:08.927Z,25.40
2023-06-06T06:57:37.959Z,25.30
2023-06-06T07:00:13.660Z,25.30
2023-06-06T07:02:43.877Z,25.50
2023-06-06T07:05:16.727Z,25.80
2023-06-06T07:07:48.906Z,26.20
2023-06-06T07:10:17.325Z,26.30
2023-06-06T07:12:53.928Z,26.50
2023-06-06T07:15:23.983Z,26.70
2023-06-06T07:17:52.052Z,26.80
2023-06-06T07:20:24.939Z,26.90
2023-06-06T07:22:56.831Z,26.80
2023-06-06T07:25:24.431Z,26.80
2023-06-06T07:27:51.637Z,26.70
2023-06-06T07:30:18.657Z,26.70
2023-06-06T07:32:48.398Z,27.10
2023-06-06T07:35:20.474Z,27.40
2023-06-06T07:37:47.777Z,27.30
2023-06-06T07:40:16.071Z,27.50
2023-06-06T07:42:43.982Z,27.60
2023-06-06T07:45:12.069Z,27.80
2023-06-06T07:47:42.021Z,28.20
2023-06-06T07:50:09.909Z,28.50
2023-06-06T07:52:37.469Z,28.60
2023-06-06T07:55:06.888Z,28.70
2023-06-06T07:57:34.799Z,28.90
2023-06-06T08:00:07.905Z,29.00
2023-06-06T08:02:34.904Z,28.90
2023-06-06T08:05:01.814Z,28.90
2023-06-06T08:07:31.816Z,29.20
2023-06-06T08:09:58.980Z,29.40
2023-06-06T08:12:25.877Z,29.20
2023-06-06T08:14:52.787Z,29.40
2023-06-06T08:17:19.645Z,29.70
2023-06-06T08:19:46.528Z,29.80
2023-06-06T08:22:13.479Z,30.10
2023-06-06T08:24:41.054Z,30.20
2023-06-06T08:27:07.940Z,30.30
2023-06-06T08:29:35.226Z,30.40
2023-06-06T08:32:03.105Z,30.50
2023-06-06T08:34:29.954Z,30.50
2023-06-06T08:36:56.831Z,30.50
2023-06-06T08:39:23.734Z,30.60
2023-06-06T08:41:55.612Z,30.70
2023-06-06T08:44:25.295Z,30.80
2023-06-06T08:46:56.444Z,30.80
2023-06-06T08:49:24.446Z,30.80
2023-06-06T08:51:52.740Z,30.90
2023-06-06T08:54:21.181Z,31.00
2023-06-06T08:56:49.397Z,31.00
2023-06-06T08:59:19.278Z,31.00
2023-06-06T09:01:48.986Z,31.00
2023-06-06T09:04:17.483Z,31.20
2023-06-06T09:06:46.238Z,31.20
2023-06-06T09:09:14.453Z,31.30
2023-06-06T09:11:41.564Z,31.40
2023-06-06T09:14:09.311Z,31.50
2023-06-06T09:16:36.989Z,31.40
2023-06-06T09:19:04.281Z,31.50
2023-06-06T09:21:33.680Z,31.50
2023-06-06T09:24:02.116Z,31.40
2023-06-06T09:26:30.418Z,31.30
2023-06-06T09:29:08.324Z,31.40
2023-06-06T09:31:39.440Z,31.70
2023-06-06T09:34:10.290Z,31.90
2023-06-06T09:36:44.766Z,32.00
2023-06-06T09:39:16.263Z,32.00
2023-06-06T09:41:48.527Z,32.00
2023-06-06T09:44:27.484Z,32.00
2023-06-06T09:47:01.942Z,31.90
2023-06-06T09:49:35.892Z,31.80
2023-06-06T09:52:07.112Z,31.80
2023-06-06T09:54:34.839Z,32.00
2023-06-06T09:57:15.282Z,32.00
2023-06-06T09:59:46.030Z,32.00
2023-06-06T10:02:20.706Z,32.00
2023-06-06T10:04:49.440Z,32.10
2023-06-06T10:07:18.124Z,32.10
2023-06-06T10:09:46.506Z,32.10
2023-06-06T10:12:14.843Z,32.00
2023-06-06T10:14:45.911Z,32.00
2023-06-06T10:17:14.754Z,31.80
2023-06-06T10:19:42.922Z,31.50
2023-06-06T10:22:09.910Z,31.30
2023-06-06T10:24:39.579Z,31.50
2023-06-06T10:27:31.158Z,31.70
2023-06-06T10:30:13.160Z,31.90
2023-06-06T10:33:09.418Z,31.90
2023-06-06T10:35:39.831Z,31.90
2023-06-06T10:38:11.006Z,32.10
2023-06-06T10:40:59.177Z,32.20
2023-06-06T10:43:48.600Z,32.10
2023-06-06T10:46:15.974Z,32.20
2023-06-06T10:48:44.646Z,32.30
2023-06-06T10:51:40.345Z,32.40
2023-06-06T10:54:35.582Z,32.70
2023-06-06T10:57:02.484Z,32.40
2023-06-06T10:59:35.528Z,32.10
2023-06-06T11:02:13.221Z,32.10
2023-06-06T11:04:40.943Z,32.30
2023-06-06T11:07:18.107Z,32.20
2023-06-06T11:09:50.089Z,32.20
2023-06-06T11:12:17.025Z,32.30
2023-06-06T11:15:08.580Z,32.30
2023-06-06T11:17:47.914Z,32.40
2023-06-06T11:20:23.748Z,32.60
2023-06-06T11:23:02.456Z,32.70
2023-06-06T11:25:36.546Z,32.50
2023-06-06T11:28:04.825Z,32.70
2023-06-06T11:30:33.847Z,32.90
2023-06-06T11:33:01.430Z,32.70
2023-06-06T11:35:33.907Z,32.80
2023-06-06T11:38:01.087Z,33.00
2023-06-06T11:40:28.379Z,33.10
2023-06-06T11:42:55.668Z,33.10
2023-06-06T11:45:23.277Z,33.10
2023-06-06T11:47:56.160Z,33.00
2023-06-06T11:50:33.742Z,32.80
2023-06-06T11:53:01.986Z,33.00
2023-06-06T11:55:39.494Z,33.00
2023-06-06T11:58:06.582Z,32.90
2023-06-06T12:00:34.329Z,32.80
2023-06-06T12:03:03.055Z,32.70
2023-06-06T12:05:30.420Z,32.70
2023-06-06T12:08:01.098Z,32.40
2023-06-06T12:10:32.297Z,32.50
2023-06-06T12:13:00.220Z,32.70
2023-06-06T12:15:49.334Z,32.80
2023-06-06T12:18:17.879Z,32.90
2023-06-06T12:20:45.145Z,33.00
2023-06-06T12:23:12.124Z,33.10
2023-06-06T12:25:39.024Z,32.80
2023-06-06T12:28:10.744Z,32.60
2023-06-06T12:30:37.870Z,32.60
2023-06-06T12:33:05.512Z,32.60
2023-06-06T12:35:32.668Z,32.60
2023-06-06T12:38:03.070Z,32.50
2023-06-06T12:40:38.513Z,32.60
2023-06-06T12:43:07.613Z,32.80
2023-06-06T12:45:38.945Z,32.90
2023-06-06T12:48:06.763Z,32.70
2023-06-06T12:50:33.878Z,32.70
2023-06-06T12:53:06.312Z,32.60
2023-06-06T12:55:33.253Z,32.60
2023-06-06T12:58:00.453Z,32.50
2023-06-06T13:00:27.540Z,32.30
2023-06-06T13:02:54.664Z,32.40
2023-06-06T13:05:21.822Z,32.30
2023-06-06T13:07:49.907Z,32.30
2023-06-06T13:10:17.601Z,32.30
2023-06-06T13:12:44.753Z,32.40
2023-06-06T13:15:13.429Z,32.40
2023-06-06T13:17:41.001Z,32.30
2023-06-06T13:20:11.965Z,32.30
2023-06-06T13:22:41.717Z,32.30
2023-06-06T13:25:09.551Z,32.20
2023-06-06T13:27:36.525Z,32.00
2023-06-06T13:30:04.010Z,32.00
2023-06-06T13:32:30.975Z,31.80
2023-06-06T13:34:57.930Z,31.80
2023-06-06T13:37:25.286Z,31.80
2023-06-06T13:39:52.195Z,31.80
2023-06-06T13:42:19.186Z,31.80
2023-06-06T13:44:46.108Z,31.70
2023-06-06T13:47:13.087Z,31.60
2023-06-06T13:49:40.878Z,31.50
2023-06-06T13:52:08.197Z,31.50
2023-06-06T13:54:35.057Z,31.50
2023-06-06T13:57:04.045Z,31.50
2023-06-06T13:59:33.106Z,31.50
2023-06-06T14:02:00.346Z,31.50
2023-06-06T14:04:27.683Z,31.40
2023-06-06T14:06:56.055Z,31.50
2023-06-06T14:09:23.698Z,31.50
2023-06-06T14:11:51.648Z,31.60
2023-06-06T14:14:19.801Z,31.70
2023-06-06T14:16:46.800Z,31.60
2023-06-06T14:19:15.163Z,31.60
2023-06-06T14:21:42.881Z,31.60
2023-06-06T14:24:11.208Z,31.50
2023-06-06T14:26:38.520Z,31.40
2023-06-06T14:29:05.857Z,31.50
2023-06-06T14:31:33.066Z,31.50
2023-06-06T14:34:00.220Z,31.40
2023-06-06T14:36:27.257Z,31.40
2023-06-06T14:38:56.502Z,31.50
2023-06-06T14:41:23.447Z,31.60
2023-06-06T14:43:56.833Z,31.70
2023-06-06T14:46:24.345Z,31.60
2023-06-06T14:48:51.274Z,31.30
2023-06-06T14:51:18.250Z,31.30
2023-06-06T14:53:45.516Z,31.30
2023-06-06T14:56:12.470Z,31.30
2023-06-06T14:58:43.870Z,31.40
2023-06-06T15:01:11.414Z,31.40
2023-06-06T15:03:38.511Z,31.40
2023-06-06T15:06:06.539Z,31.40
2023-06-06T15:08:33.674Z,31.20
2023-06-06T15:11:01.204Z,31.10
2023-06-06T15:13:28.083Z,31.10
2023-06-06T15:15:55.186Z,31.00
2023-06-06T15:18:22.351Z,31.00
2023-06-06T15:20:49.264Z,31.20
2023-06-06T15:23:17.999Z,31.10
2023-06-06T15:25:45.019Z,31.00
2023-06-06T15:28:12.249Z,30.90
2023-06-06T15:30:39.191Z,30.90
2023-06-06T15:33:06.282Z,30.90
2023-06-06T15:35:33.252Z,30.90
2023-06-06T15:38:00.595Z,30.80
2023-06-06T15:40:27.627Z,30.50
2023-06-06T15:42:54.601Z,30.60
2023-06-06T15:45:21.619Z,30.60
2023-06-06T15:47:48.632Z,30.50
2023-06-06T15:50:16.396Z,30.40
2023-06-06T15:52:45.095Z,30.40
2023-06-06T15:55:12.446Z,30.30
2023-06-06T15:57:39.616Z,30.10
2023-06-06T16:00:08.132Z,30.10
2023-06-06T16:02:35.032Z,30.00
2023-06-06T16:05:02.262Z,30.00
2023-06-06T16:07:29.165Z,30.00
2023-06-06T16:09:56.196Z,30.10
2023-06-06T16:12:23.726Z,29.90
2023-06-06T16:14:51.676Z,29.90
2023-06-06T16:17:19.353Z,29.80
2023-06-06T16:19:46.325Z,29.70
2023-06-06T16:22:14.588Z,29.60
2023-06-06T16:24:41.593Z,29.60
2023-06-06T16:27:08.742Z,29.50
2023-06-06T16:29:36.028Z,29.50
2023-06-06T16:32:03.970Z,29.40
2023-06-06T16:34:31.228Z,29.20
2023-06-06T16:36:59.218Z,29.10
2023-06-06T16:39:27.926Z,29.10
2023-06-06T16:41:54.919Z,29.00
2023-06-06T16:44:23.059Z,29.00
2023-06-06T16:46:52.293Z,29.10
2023-06-06T16:49:19.444Z,29.10
2023-06-06T16:51:46.338Z,29.00
2023-06-06T16:54:15.274Z,28.90
2023-06-06T16:56:42.648Z,28.90
2023-06-06T16:59:11.563Z,28.80
2023-06-06T17:01:39.361Z,28.80
2023-06-06T17:04:06.642Z,28.70
2023-06-06T17:06:33.675Z,28.60
2023-06-06T17:09:02.033Z,28.60
2023-06-06T17:11:29.099Z,28.50
2023-06-06T17:13:56.083Z,28.40
2023-06-06T17:16:23.119Z,28.30
2023-06-06T17:18:51.238Z,28.20
2023-06-06T17:21:18.534Z,28.00
2023-06-06T17:23:46.630Z,27.90
2023-06-06T17:26:13.620Z,27.90
2023-06-06T17:28:41.116Z,27.70
2023-06-06T17:31:08.483Z,27.60
2023-06-06T17:33:35.817Z,27.50
2023-06-06T17:36:02.744Z,27.40
2023-06-06T17:38:29.611Z,27.40
2023-06-06T17:40:56.565Z,27.30
2023-06-06T17:43:23.511Z,27.10
2023-06-06T17:45:50.411Z,27.00
2023-06-06T17:48:17.355Z,27.00
2023-06-06T17:50:44.221Z,27.00
2023-06-06T17:53:11.152Z,27.00
2023-06-06T17:55:39.509Z,27.00
2023-06-06T17:58:06.420Z,27.00
2023-06-06T18:00:33.396Z,26.90
2023-06-06T18:03:00.336Z,26.70
2023-06-06T18:07:57.590Z,26.50
2023-06-06T18:10:24.714Z,26.40
2023-06-06T18:12:51.733Z,26.30
2023-06-06T18:15:19.110Z,26.20
2023-06-06T18:17:48.577Z,26.10
2023-06-06T18:20:16.164Z,25.90
2023-06-06T18:22:43.162Z,25.80
2023-06-06T18:25:13.765Z,25.60
2023-06-06T18:27:41.569Z,25.50
2023-06-06T18:30:09.092Z,25.40
2023-06-06T18:32:36.937Z,25.30
2023-06-06T18:35:06.021Z,25.20
2023-06-06T18:37:35.670Z,25.10
2023-06-06T18:40:03.479Z,25.00
2023-06-06T18:42:32.992Z,24.90
2023-06-06T18:45:02.518Z,24.70
2023-06-06T18:47:32.031Z,24.60
2023-06-06T18:50:00.412Z,24.60
2023-06-06T18:52:27.683Z,24.50
2023-06-06T18:54:54.798Z,24.40
2023-06-06T18:57:23.048Z,24.40
2023-06-06T18:59:50.600Z,24.20
2023-06-06T19:02:18.006Z,24.10
2023-06-06T19:04:44.990Z,24.00
2023-06-06T19:07:13.996Z,23.80
2023-06-06T19:09:41.148Z,23.70
2023-06-06T19:12:11.674Z,23.70
2023-06-06T19:14:39.029Z,23.60
2023-06-06T19:17:08.163Z,23.50
2023-06-06T19:19:35.610Z,23.40
2023-06-06T19:22:03.962Z,23.20
2023-06-06T19:24:31.112Z,23.00
2023-06-06T19:26:57.983Z,22.90
2023-06-06T19:29:25.016Z,22.70
2023-06-06T19:31:55.053Z,22.60
2023-06-06T19:34:23.944Z,22.50
2023-06-06T19:36:51.046Z,22.50
2023-06-06T19:39:19.698Z,22.40
2023-06-06T19:41:46.703Z,22.30
2023-06-06T19:44:14.015Z,22.20
2023-06-06T19:46:41.029Z,22.20
2023-06-06T19:49:09.705Z,22.10
2023-06-06T19:51:37.935Z,22.10
2023-06-06T19:54:04.881Z,22.00
2023-06-06T19:56:32.387Z,21.90
2023-06-06T19:58:59.296Z,21.80
2023-06-06T20:01:26.284Z,21.70
2023-06-06T20:03:53.396Z,21.70
2023-06-06T20:06:24.449Z,21.60
2023-06-06T20:08:51.396Z,21.60
2023-06-06T20:11:18.300Z,21.50
2023-06-06T20:13:45.311Z,21.40
2023-06-06T20:16:12.492Z,21.30
2023-06-06T20:18:39.456Z,21.30
2023-06-06T20:21:07.148Z,21.20
2023-06-06T20:23:34.179Z,21.20
2023-06-06T20:26:07.780Z,21.20
2023-06-06T20:28:35.052Z,21.10
2023-06-06T20:31:04.391Z,21.00
2023-06-06T20:33:31.336Z,20.90
2023-06-06T20:35:59.414Z,20.80
2023-06-06T20:38:27.382Z,20.80
2023-06-06T20:40:54.692Z,20.70
2023-06-06T20:43:25.856Z,20.70
2023-06-06T20:45:54.385Z,20.60
2023-06-06T20:48:21.580Z,20.60
2023-06-06T20:50:49.050Z,20.60
2023-06-06T20:53:16.362Z,20.50
2023-06-06T20:55:43.454Z,20.50
2023-06-06T20:58:18.033Z,20.50
2023-06-06T21:00:48.134Z,20.40
2023-06-06T21:03:16.238Z,20.40
2023-06-06T21:05:43.915Z,20.30
2023-06-06T21:08:10.964Z,20.30
2023-06-06T21:10:38.044Z,20.20
2023-06-06T21:13:06.131Z,20.10
2023-06-06T21:15:33.298Z,20.10
2023-06-06T21:18:00.190Z,20.10
2023-06-06T21:20:27.129Z,20.10
2023-06-06T21:22:54.039Z,20.00
2023-06-06T21:25:21.037Z,20.00
2023-06-06T21:27:47.951Z,19.90
2023-06-06T21:30:14.988Z,19.90
2023-06-06T21:32:42.233Z,19.80
2023-06-06T21:35:09.535Z,19.80
2023-06-06T21:37:38.926Z,19.80
2023-06-06T21:40:06.739Z,19.70
2023-06-06T21:42:33.733Z,19.70
2023-06-06T21:45:00.619Z,19.70
2023-06-06T21:47:27.543Z,19.60
2023-06-06T21:50:09.592Z,19.50
2023-06-06T21:52:37.213Z,19.60
2023-06-06T21:55:05.226Z,19.50
2023-06-06T21:57:32.546Z,19.50
2023-06-06T21:59:59.887Z,19.50
2023-06-06T22:02:26.918Z,19.40
2023-06-06T22:04:53.886Z,19.40
2023-06-06T22:07:20.863Z,19.50
2023-06-06T22:09:47.802Z,19.50
2023-06-06T22:12:14.806Z,19.50
2023-06-06T22:14:42.691Z,19.40
2023-06-06T22:17:09.620Z,19.40
2023-06-06T22:19:36.566Z,19.30
2023-06-06T22:22:03.546Z,19.30
2023-06-06T22:24:30.576Z,19.30
2023-06-06T22:27:00.349Z,19.30
2023-06-06T22:29:27.337Z,19.30
2023-06-06T22:31:54.255Z,19.30
2023-06-06T22:34:21.612Z,19.30
2023-06-06T22:36:48.531Z,19.20
2023-06-06T22:39:15.548Z,19.20
2023-06-06T22:41:42.448Z,19.20
2023-06-06T22:44:09.378Z,19.20
2023-06-06T22:46:36.378Z,19.20
2023-06-06T22:49:03.365Z,19.30
2023-06-06T22:51:30.239Z,19.20
2023-06-06T22:53:57.185Z,19.20
2023-06-06T22:56:24.291Z,19.20
2023-06-06T22:58:51.784Z,19.20
2023-06-06T23:01:19.022Z,19.20
2023-06-06T23:03:46.064Z,19.30
2023-06-06T23:06:13.272Z,19.20
2023-06-06T23:08:40.510Z,19.20
2023-06-06T23:11:07.444Z,19.20
2023-06-06T23:13:34.357Z,19.20
2023-06-06T23:16:02.347Z,19.20
2023-06-06T23:18:29.422Z,19.20
2023-06-06T23:20:56.289Z,19.20
2023-06-06T23:23:23.274Z,19.20
2023-06-06T23:25:50.928Z,19.10
2023-06-06T23:28:18.733Z,19.20
2023-06-06T23:30:45.760Z,19.10
2023-06-06T23:33:12.834Z,19.20
2023-06-06T23:35:39.788Z,19.10
2023-06-06T23:38:07.153Z,19.20
2023-06-06T23:40:34.033Z,19.20
2023-06-06T23:43:00.945Z,19.20
2023-06-06T23:45:29.354Z,19.10
2023-06-06T23:47:56.537Z,19.10
2023-06-06T23:50:23.504Z,19.10
2023-06-06T23:52:50.360Z,19.10
2023-06-06T23:55:17.451Z,19.10
2023-06-06T23:57:44.317Z,19.00
